Kugluktuk Airport
CYCO : now visible

Airfield :











YOU CAN JOIN US ON...

 
LOGIN :

Register | Disclaimer

   EN    FR    IT 

 









Legend :    VFR   Marginal VFR   IFR   Intensive IFR   Very Intensive IFR
Visi :
Ceiling :
>= 8 km
>= 3000ft
5 to 8 km
1000 to 3000 ft
1500m to 5 km
500 to 1000 ft
800 to 1500m
200 to 500 ft
< 800m
< 200 ft
Symbols :   Thunderstorms  Fog  Heavy snow  Heavy precipitations  Wind > 20 kt






- Airport Elevation : 74 ft
- IATA code : YCO


CYCO - Kugluktuk

CURRENT METAR :
  • 230100Z 08009KT 4SM FU BKN110 BKN160 21/13 A2995 RMK FU2AC3AC2 SLP147 DENSITY ALT 800FT

EXPIRED METARs :
  • 230000Z 05007KT 4SM FU BKN120 BKN170 21/13 A2996 RMK FU4AC3AC1 AC TR SLP149 DENSITY ALT 800FT
  • 222313Z 03011KT 3SM FU BKN074 OVC140 20/14 A2997 RMK FU5AC2AC1 SLP153 DENSITY ALT 700FT
  • 222229Z 04011KT 2SM -SHRA FU BKN064TCU BKN110TCU 21/15 A2997 RMK FU4TCU2TCU1 SLP151 DENSITY ALT 800FT
  • 222200Z 04011KT 2SM FU BKN120TCU BKN240 24/15 A2996 RMK FU4TCU2CI1 SLP149 DENSITY ALT 1200FT
  • 222127Z 05006KT 2SM FU BKN100TCU BKN240 26/15 A2997 RMK FU5TCU1CI2 TCU TR SLP151 DENSITY ALT 1300FT
  • 222100Z 36006KT 310V040 3SM FU BKN240 26/14 A2997 RMK FU5CI2 VIS E-S 11/2 SLP151 DENSITY ALT 1400FT
  • 222000Z 01006KT 260V030 3SM FU BKN280 24/15 A2998 RMK FU4CI3 VIS E-S 11/2 SLP154 DENSITY ALT 1200FT

TAF TAF CYCO
Valid from the 23 at 01:00 until the 23 at 13:00 UTC


230040Z 2301/2313 04010KT 6SM FU SCT080 BKN120
TEMPO 2301/2303 5SM FU BKN080
FM230300 04010KT P6SM SCT080 BKN120
TEMPO 2303/2310 6SM FU BKN080
FM231000 02010KT P6SM SCT010 BKN120
TEMPO 2310/2313 5SM -RA BR OVC008 RMK NXT FCST BY 230700Z
CZEG FIR / North America



MET'MAP, your aeronautical weather chart ! - Copyright ORBIFLY December 2007 - Disclaimer

ORBIFLY MET'MAP TEAM :

Programming & Development : Alexandra Zaïnal
Original concept : Baudouin d'Aumeries
Technical & hardware support : Manuel Goepfert
Assistance : Marc-Olivier Méhu




SOURCES & CREDITS :

   NOAA       Earth
Advisory